sensor_id;sensor_type;location;lat;lon;timestamp;P1;durP1;ratioP1;P2;durP2;ratioP2
23555;SDS011;11956;53.184;8.578;2023-01-13T00:00:46;9.93;;;1.75;;
23555;SDS011;11956;53.184;8.578;2023-01-13T00:03:47;9.35;;;1.55;;
23555;SDS011;11956;53.184;8.578;2023-01-13T00:06:50;10.55;;;1.88;;
23555;SDS011;11956;53.184;8.578;2023-01-13T00:09:51;14.13;;;2.03;;
23555;SDS011;11956;53.184;8.578;2023-01-13T00:12:52;8.48;;;1.75;;
23555;SDS011;11956;53.184;8.578;2023-01-13T00:15:56;11.88;;;2.03;;
23555;SDS011;11956;53.184;8.578;2023-01-13T00:18:59;6.50;;;1.90;;
23555;SDS011;11956;53.184;8.578;2023-01-13T00:22:00;8.40;;;2.17;;
23555;SDS011;11956;53.184;8.578;2023-01-13T00:25:01;11.43;;;1.52;;
23555;SDS011;11956;53.184;8.578;2023-01-13T00:28:03;7.82;;;1.75;;
23555;SDS011;11956;53.184;8.578;2023-01-13T00:31:08;11.48;;;2.00;;
23555;SDS011;11956;53.184;8.578;2023-01-13T00:34:11;12.80;;;2.20;;
23555;SDS011;11956;53.184;8.578;2023-01-13T00:37:12;14.57;;;1.98;;
23555;SDS011;11956;53.184;8.578;2023-01-13T00:40:13;16.55;;;2.38;;
23555;SDS011;11956;53.184;8.578;2023-01-13T00:43:14;12.05;;;1.80;;
23555;SDS011;11956;53.184;8.578;2023-01-13T00:46:24;13.82;;;2.15;;
23555;SDS011;11956;53.184;8.578;2023-01-13T00:49:25;14.30;;;2.30;;
23555;SDS011;11956;53.184;8.578;2023-01-13T00:52:26;12.90;;;1.92;;
23555;SDS011;11956;53.184;8.578;2023-01-13T00:55:29;15.75;;;2.25;;
23555;SDS011;11956;53.184;8.578;2023-01-13T00:58:31;16.17;;;2.03;;
23555;SDS011;11956;53.184;8.578;2023-01-13T01:01:33;11.98;;;2.30;;
23555;SDS011;11956;53.184;8.578;2023-01-13T01:04:34;14.27;;;2.70;;
23555;SDS011;11956;53.184;8.578;2023-01-13T01:07:35;11.07;;;2.30;;
23555;SDS011;11956;53.184;8.578;2023-01-13T01:10:36;13.35;;;2.45;;
23555;SDS011;11956;53.184;8.578;2023-01-13T01:13:37;14.00;;;2.63;;
23555;SDS011;11956;53.184;8.578;2023-01-13T01:16:39;13.63;;;2.58;;
23555;SDS011;11956;53.184;8.578;2023-01-13T01:19:40;15.23;;;3.00;;
23555;SDS011;11956;53.184;8.578;2023-01-13T01:22:41;14.48;;;2.42;;
23555;SDS011;11956;53.184;8.578;2023-01-13T01:25:42;18.23;;;2.35;;
23555;SDS011;11956;53.184;8.578;2023-01-13T01:28:43;14.90;;;1.92;;
23555;SDS011;11956;53.184;8.578;2023-01-13T01:31:45;17.65;;;2.90;;
23555;SDS011;11956;53.184;8.578;2023-01-13T01:34:46;18.38;;;3.15;;
23555;SDS011;11956;53.184;8.578;2023-01-13T01:37:47;16.05;;;2.85;;
23555;SDS011;11956;53.184;8.578;2023-01-13T01:40:48;23.48;;;3.13;;
23555;SDS011;11956;53.184;8.578;2023-01-13T01:47:42;23.48;;;3.50;;
23555;SDS011;11956;53.184;8.578;2023-01-13T01:50:49;19.98;;;3.08;;
23555;SDS011;11956;53.184;8.578;2023-01-13T01:53:52;26.10;;;3.70;;
23555;SDS011;11956;53.184;8.578;2023-01-13T01:56:54;30.98;;;3.83;;
23555;SDS011;11956;53.184;8.578;2023-01-13T01:59:58;24.90;;;3.42;;
23555;SDS011;11956;53.184;8.578;2023-01-13T02:03:00;25.23;;;3.72;;
23555;SDS011;11956;53.184;8.578;2023-01-13T02:06:02;32.88;;;4.40;;
23555;SDS011;11956;53.184;8.578;2023-01-13T02:09:03;26.65;;;3.85;;
23555;SDS011;11956;53.184;8.578;2023-01-13T02:12:04;35.17;;;4.15;;
23555;SDS011;11956;53.184;8.578;2023-01-13T02:15:26;37.58;;;5.30;;
23555;SDS011;11956;53.184;8.578;2023-01-13T02:18:54;31.15;;;4.43;;
23555;SDS011;11956;53.184;8.578;2023-01-13T02:33:53;33.50;;;4.63;;
23555;SDS011;11956;53.184;8.578;2023-01-13T02:36:57;26.30;;;4.15;;
23555;SDS011;11956;53.184;8.578;2023-01-13T02:43:17;27.02;;;4.43;;
23555;SDS011;11956;53.184;8.578;2023-01-13T02:50:18;28.88;;;4.07;;
23555;SDS011;11956;53.184;8.578;2023-01-13T02:53:27;37.67;;;4.57;;
23555;SDS011;11956;53.184;8.578;2023-01-13T02:56:39;29.45;;;4.47;;
23555;SDS011;11956;53.184;8.578;2023-01-13T02:59:44;32.55;;;5.05;;
23555;SDS011;11956;53.184;8.578;2023-01-13T03:02:46;27.30;;;4.57;;
23555;SDS011;11956;53.184;8.578;2023-01-13T03:05:48;25.80;;;3.95;;
23555;SDS011;11956;53.184;8.578;2023-01-13T03:09:12;30.17;;;4.63;;
23555;SDS011;11956;53.184;8.578;2023-01-13T03:12:25;27.13;;;3.65;;
23555;SDS011;11956;53.184;8.578;2023-01-13T03:22:30;34.50;;;4.95;;
23555;SDS011;11956;53.184;8.578;2023-01-13T03:26:01;26.35;;;4.35;;
23555;SDS011;11956;53.184;8.578;2023-01-13T03:29:17;24.60;;;4.57;;
23555;SDS011;11956;53.184;8.578;2023-01-13T03:35:39;29.80;;;4.50;;
23555;SDS011;11956;53.184;8.578;2023-01-13T03:38:50;31.02;;;4.68;;
23555;SDS011;11956;53.184;8.578;2023-01-13T03:42:08;32.25;;;4.90;;
23555;SDS011;11956;53.184;8.578;2023-01-13T03:45:15;29.95;;;4.95;;
23555;SDS011;11956;53.184;8.578;2023-01-13T03:48:19;31.05;;;5.25;;
23555;SDS011;11956;53.184;8.578;2023-01-13T03:51:26;39.83;;;5.00;;
23555;SDS011;11956;53.184;8.578;2023-01-13T03:54:31;39.75;;;6.57;;
23555;SDS011;11956;53.184;8.578;2023-01-13T03:57:40;31.27;;;4.85;;
23555;SDS011;11956;53.184;8.578;2023-01-13T04:00:55;34.80;;;4.80;;
23555;SDS011;11956;53.184;8.578;2023-01-13T04:04:15;42.50;;;5.70;;
23555;SDS011;11956;53.184;8.578;2023-01-13T04:11:08;35.67;;;5.03;;
23555;SDS011;11956;53.184;8.578;2023-01-13T04:14:18;34.20;;;5.47;;
23555;SDS011;11956;53.184;8.578;2023-01-13T04:17:20;32.10;;;5.20;;
23555;SDS011;11956;53.184;8.578;2023-01-13T04:20:23;42.53;;;5.10;;
23555;SDS011;11956;53.184;8.578;2023-01-13T04:23:24;28.73;;;4.38;;
23555;SDS011;11956;53.184;8.578;2023-01-13T04:26:27;25.85;;;4.38;;
23555;SDS011;11956;53.184;8.578;2023-01-13T04:29:27;29.83;;;4.43;;
23555;SDS011;11956;53.184;8.578;2023-01-13T04:32:28;32.20;;;5.10;;
23555;SDS011;11956;53.184;8.578;2023-01-13T04:35:30;27.98;;;4.32;;
23555;SDS011;11956;53.184;8.578;2023-01-13T04:38:32;36.78;;;5.43;;
23555;SDS011;11956;53.184;8.578;2023-01-13T04:41:33;24.70;;;4.07;;
23555;SDS011;11956;53.184;8.578;2023-01-13T04:44:52;26.48;;;4.38;;
23555;SDS011;11956;53.184;8.578;2023-01-13T04:47:53;27.40;;;4.88;;
23555;SDS011;11956;53.184;8.578;2023-01-13T04:50:54;26.67;;;4.78;;
23555;SDS011;11956;53.184;8.578;2023-01-13T04:53:55;32.95;;;5.47;;
23555;SDS011;11956;53.184;8.578;2023-01-13T04:56:57;25.58;;;4.13;;
23555;SDS011;11956;53.184;8.578;2023-01-13T04:59:58;35.55;;;5.35;;
23555;SDS011;11956;53.184;8.578;2023-01-13T05:03:01;25.10;;;4.38;;
23555;SDS011;11956;53.184;8.578;2023-01-13T05:06:02;32.22;;;5.03;;
23555;SDS011;11956;53.184;8.578;2023-01-13T05:09:04;33.03;;;4.85;;
23555;SDS011;11956;53.184;8.578;2023-01-13T05:12:05;29.08;;;4.70;;
23555;SDS011;11956;53.184;8.578;2023-01-13T05:15:52;28.25;;;5.15;;
23555;SDS011;11956;53.184;8.578;2023-01-13T05:19:11;31.45;;;4.78;;
23555;SDS011;11956;53.184;8.578;2023-01-13T05:22:12;28.67;;;4.90;;
23555;SDS011;11956;53.184;8.578;2023-01-13T05:25:33;30.02;;;5.03;;
23555;SDS011;11956;53.184;8.578;2023-01-13T05:28:38;30.88;;;5.47;;
23555;SDS011;11956;53.184;8.578;2023-01-13T05:31:38;28.60;;;5.32;;
23555;SDS011;11956;53.184;8.578;2023-01-13T05:34:39;35.03;;;5.53;;
23555;SDS011;11956;53.184;8.578;2023-01-13T05:37:41;30.20;;;5.05;;
23555;SDS011;11956;53.184;8.578;2023-01-13T05:40:43;29.70;;;5.10;;
23555;SDS011;11956;53.184;8.578;2023-01-13T05:44:20;30.92;;;5.15;;
23555;SDS011;11956;53.184;8.578;2023-01-13T05:47:20;39.17;;;9.23;;
23555;SDS011;11956;53.184;8.578;2023-01-13T05:50:21;28.60;;;5.38;;
23555;SDS011;11956;53.184;8.578;2023-01-13T05:53:23;27.67;;;5.28;;
23555;SDS011;11956;53.184;8.578;2023-01-13T05:56:24;24.88;;;4.80;;
23555;SDS011;11956;53.184;8.578;2023-01-13T05:59:25;33.53;;;6.00;;
23555;SDS011;11956;53.184;8.578;2023-01-13T06:02:26;37.78;;;6.57;;
23555;SDS011;11956;53.184;8.578;2023-01-13T06:05:27;30.50;;;5.22;;
23555;SDS011;11956;53.184;8.578;2023-01-13T06:08:29;32.75;;;5.30;;
23555;SDS011;11956;53.184;8.578;2023-01-13T06:11:30;32.40;;;5.72;;
23555;SDS011;11956;53.184;8.578;2023-01-13T06:14:31;33.63;;;5.57;;
23555;SDS011;11956;53.184;8.578;2023-01-13T06:17:41;39.28;;;6.00;;
23555;SDS011;11956;53.184;8.578;2023-01-13T06:20:42;31.90;;;5.25;;
23555;SDS011;11956;53.184;8.578;2023-01-13T06:23:43;28.98;;;5.25;;
23555;SDS011;11956;53.184;8.578;2023-01-13T06:26:43;32.38;;;5.78;;
23555;SDS011;11956;53.184;8.578;2023-01-13T06:29:44;26.10;;;5.03;;
23555;SDS011;11956;53.184;8.578;2023-01-13T06:32:47;33.97;;;5.40;;
23555;SDS011;11956;53.184;8.578;2023-01-13T06:35:56;30.52;;;5.07;;
23555;SDS011;11956;53.184;8.578;2023-01-13T06:39:02;30.90;;;4.75;;
23555;SDS011;11956;53.184;8.578;2023-01-13T06:42:04;34.28;;;6.38;;
23555;SDS011;11956;53.184;8.578;2023-01-13T06:45:24;29.08;;;5.07;;
23555;SDS011;11956;53.184;8.578;2023-01-13T06:48:28;38.60;;;6.72;;
23555;SDS011;11956;53.184;8.578;2023-01-13T06:51:34;33.20;;;5.18;;
23555;SDS011;11956;53.184;8.578;2023-01-13T06:54:34;25.80;;;4.38;;
23555;SDS011;11956;53.184;8.578;2023-01-13T06:57:45;25.90;;;4.60;;
23555;SDS011;11956;53.184;8.578;2023-01-13T07:00:53;33.45;;;5.65;;
23555;SDS011;11956;53.184;8.578;2023-01-13T07:03:59;33.60;;;4.80;;
23555;SDS011;11956;53.184;8.578;2023-01-13T07:07:01;36.65;;;4.93;;
23555;SDS011;11956;53.184;8.578;2023-01-13T07:10:02;31.52;;;5.20;;
23555;SDS011;11956;53.184;8.578;2023-01-13T07:13:10;31.13;;;4.50;;
23555;SDS011;11956;53.184;8.578;2023-01-13T07:16:50;27.75;;;5.05;;
23555;SDS011;11956;53.184;8.578;2023-01-13T07:19:53;23.48;;;5.35;;
23555;SDS011;11956;53.184;8.578;2023-01-13T07:22:54;25.23;;;4.88;;
23555;SDS011;11956;53.184;8.578;2023-01-13T07:25:56;23.90;;;4.25;;
23555;SDS011;11956;53.184;8.578;2023-01-13T07:28:58;31.67;;;6.07;;
23555;SDS011;11956;53.184;8.578;2023-01-13T07:31:59;26.52;;;4.68;;
23555;SDS011;11956;53.184;8.578;2023-01-13T07:35:00;29.42;;;5.75;;
23555;SDS011;11956;53.184;8.578;2023-01-13T07:41:05;27.80;;;4.45;;
23555;SDS011;11956;53.184;8.578;2023-01-13T07:44:25;22.35;;;4.95;;
23555;SDS011;11956;53.184;8.578;2023-01-13T07:47:26;32.78;;;5.63;;
23555;SDS011;11956;53.184;8.578;2023-01-13T07:50:27;23.40;;;3.92;;
23555;SDS011;11956;53.184;8.578;2023-01-13T07:53:28;28.55;;;4.72;;
23555;SDS011;11956;53.184;8.578;2023-01-13T07:56:29;24.40;;;4.10;;
23555;SDS011;11956;53.184;8.578;2023-01-13T07:59:31;23.02;;;4.18;;
23555;SDS011;11956;53.184;8.578;2023-01-13T08:02:31;21.30;;;4.15;;
23555;SDS011;11956;53.184;8.578;2023-01-13T08:05:33;25.90;;;3.90;;
23555;SDS011;11956;53.184;8.578;2023-01-13T08:08:35;15.90;;;2.70;;
23555;SDS011;11956;53.184;8.578;2023-01-13T08:11:37;19.83;;;3.25;;
23555;SDS011;11956;53.184;8.578;2023-01-13T08:14:38;16.95;;;3.60;;
23555;SDS011;11956;53.184;8.578;2023-01-13T08:17:38;19.80;;;3.80;;
23555;SDS011;11956;53.184;8.578;2023-01-13T08:20:39;15.68;;;3.05;;
23555;SDS011;11956;53.184;8.578;2023-01-13T08:23:41;23.38;;;3.75;;
23555;SDS011;11956;53.184;8.578;2023-01-13T08:26:43;19.23;;;3.70;;
23555;SDS011;11956;53.184;8.578;2023-01-13T08:29:44;21.90;;;3.60;;
23555;SDS011;11956;53.184;8.578;2023-01-13T08:32:46;16.30;;;3.38;;
23555;SDS011;11956;53.184;8.578;2023-01-13T08:35:48;19.98;;;3.22;;
23555;SDS011;11956;53.184;8.578;2023-01-13T08:38:51;18.25;;;2.63;;
23555;SDS011;11956;53.184;8.578;2023-01-13T08:41:52;17.00;;;2.90;;
23555;SDS011;11956;53.184;8.578;2023-01-13T08:44:57;13.80;;;3.08;;
23555;SDS011;11956;53.184;8.578;2023-01-13T08:47:58;18.75;;;2.88;;
23555;SDS011;11956;53.184;8.578;2023-01-13T08:51:03;17.77;;;3.28;;
23555;SDS011;11956;53.184;8.578;2023-01-13T08:54:07;16.45;;;2.72;;
23555;SDS011;11956;53.184;8.578;2023-01-13T08:57:08;17.40;;;2.70;;
23555;SDS011;11956;53.184;8.578;2023-01-13T09:00:09;11.32;;;2.40;;
23555;SDS011;11956;53.184;8.578;2023-01-13T09:03:11;18.13;;;3.00;;
23555;SDS011;11956;53.184;8.578;2023-01-13T09:06:12;9.77;;;1.98;;
23555;SDS011;11956;53.184;8.578;2023-01-13T09:09:13;16.33;;;2.60;;
23555;SDS011;11956;53.184;8.578;2023-01-13T09:12:14;13.15;;;3.28;;
23555;SDS011;11956;53.184;8.578;2023-01-13T09:15:34;16.38;;;2.83;;
23555;SDS011;11956;53.184;8.578;2023-01-13T09:18:35;18.30;;;3.50;;
23555;SDS011;11956;53.184;8.578;2023-01-13T09:21:36;12.95;;;2.35;;
23555;SDS011;11956;53.184;8.578;2023-01-13T09:24:37;13.15;;;2.20;;
23555;SDS011;11956;53.184;8.578;2023-01-13T09:27:38;17.60;;;3.30;;
23555;SDS011;11956;53.184;8.578;2023-01-13T09:30:39;15.93;;;2.75;;
23555;SDS011;11956;53.184;8.578;2023-01-13T09:33:40;14.40;;;2.20;;
23555;SDS011;11956;53.184;8.578;2023-01-13T09:36:59;17.92;;;4.15;;
23555;SDS011;11956;53.184;8.578;2023-01-13T09:40:01;20.75;;;2.80;;
23555;SDS011;11956;53.184;8.578;2023-01-13T09:43:30;13.98;;;2.63;;
23555;SDS011;11956;53.184;8.578;2023-01-13T09:46:56;14.93;;;3.05;;
23555;SDS011;11956;53.184;8.578;2023-01-13T09:53:15;21.13;;;3.50;;
23555;SDS011;11956;53.184;8.578;2023-01-13T09:56:22;17.08;;;2.70;;
23555;SDS011;11956;53.184;8.578;2023-01-13T09:59:25;16.40;;;2.83;;
23555;SDS011;11956;53.184;8.578;2023-01-13T10:12:44;17.92;;;2.90;;
23555;SDS011;11956;53.184;8.578;2023-01-13T10:27:03;20.13;;;3.22;;
23555;SDS011;11956;53.184;8.578;2023-01-13T10:33:32;12.75;;;2.55;;
23555;SDS011;11956;53.184;8.578;2023-01-13T10:36:33;14.23;;;3.13;;
23555;SDS011;11956;53.184;8.578;2023-01-13T10:39:38;14.60;;;2.55;;
23555;SDS011;11956;53.184;8.578;2023-01-13T10:42:44;14.52;;;3.97;;
23555;SDS011;11956;53.184;8.578;2023-01-13T10:46:09;19.08;;;2.40;;
23555;SDS011;11956;53.184;8.578;2023-01-13T10:49:29;12.70;;;2.65;;
23555;SDS011;11956;53.184;8.578;2023-01-13T10:52:37;13.43;;;3.50;;
23555;SDS011;11956;53.184;8.578;2023-01-13T10:56:14;17.98;;;3.25;;
23555;SDS011;11956;53.184;8.578;2023-01-13T11:05:28;15.07;;;3.60;;
23555;SDS011;11956;53.184;8.578;2023-01-13T11:08:30;18.42;;;3.50;;
23555;SDS011;11956;53.184;8.578;2023-01-13T11:11:44;28.38;;;5.13;;
23555;SDS011;11956;53.184;8.578;2023-01-13T11:14:46;23.10;;;4.05;;
23555;SDS011;11956;53.184;8.578;2023-01-13T11:17:50;23.08;;;5.20;;
23555;SDS011;11956;53.184;8.578;2023-01-13T11:21:35;19.95;;;4.38;;
23555;SDS011;11956;53.184;8.578;2023-01-13T11:25:03;19.55;;;4.43;;
23555;SDS011;11956;53.184;8.578;2023-01-13T11:32:00;18.52;;;3.25;;
23555;SDS011;11956;53.184;8.578;2023-01-13T11:35:18;19.77;;;3.72;;
23555;SDS011;11956;53.184;8.578;2023-01-13T11:38:30;19.98;;;4.20;;
23555;SDS011;11956;53.184;8.578;2023-01-13T11:41:43;21.88;;;4.10;;
23555;SDS011;11956;53.184;8.578;2023-01-13T11:45:19;19.42;;;2.85;;
23555;SDS011;11956;53.184;8.578;2023-01-13T11:48:47;13.85;;;2.85;;
23555;SDS011;11956;53.184;8.578;2023-01-13T11:51:49;16.88;;;2.90;;
23555;SDS011;11956;53.184;8.578;2023-01-13T12:05:36;12.52;;;2.45;;
23555;SDS011;11956;53.184;8.578;2023-01-13T12:09:05;13.60;;;2.42;;
23555;SDS011;11956;53.184;8.578;2023-01-13T12:19:26;12.93;;;2.63;;
23555;SDS011;11956;53.184;8.578;2023-01-13T12:22:31;14.88;;;2.67;;
23555;SDS011;11956;53.184;8.578;2023-01-13T12:25:37;13.25;;;2.42;;
23555;SDS011;11956;53.184;8.578;2023-01-13T12:29:00;16.17;;;3.10;;
23555;SDS011;11956;53.184;8.578;2023-01-13T12:32:12;20.85;;;7.07;;
23555;SDS011;11956;53.184;8.578;2023-01-13T12:38:48;14.45;;;2.83;;
23555;SDS011;11956;53.184;8.578;2023-01-13T12:41:59;15.65;;;2.85;;
23555;SDS011;11956;53.184;8.578;2023-01-13T12:45:34;17.58;;;3.00;;
23555;SDS011;11956;53.184;8.578;2023-01-13T12:48:44;12.48;;;2.40;;
23555;SDS011;11956;53.184;8.578;2023-01-13T13:01:12;19.10;;;3.30;;
23555;SDS011;11956;53.184;8.578;2023-01-13T13:04:20;16.85;;;3.42;;
23555;SDS011;11956;53.184;8.578;2023-01-13T13:07:59;13.43;;;3.00;;
23555;SDS011;11956;53.184;8.578;2023-01-13T13:11:22;18.92;;;2.80;;
23555;SDS011;11956;53.184;8.578;2023-01-13T13:14:59;13.77;;;2.70;;
23555;SDS011;11956;53.184;8.578;2023-01-13T13:18:18;23.25;;;3.88;;
23555;SDS011;11956;53.184;8.578;2023-01-13T13:21:24;16.75;;;2.53;;
23555;SDS011;11956;53.184;8.578;2023-01-13T13:28:07;14.50;;;2.90;;
23555;SDS011;11956;53.184;8.578;2023-01-13T13:31:20;14.98;;;2.55;;
23555;SDS011;11956;53.184;8.578;2023-01-13T13:41:44;13.75;;;2.53;;
23555;SDS011;11956;53.184;8.578;2023-01-13T13:45:15;16.88;;;3.25;;
23555;SDS011;11956;53.184;8.578;2023-01-13T13:48:38;17.58;;;2.63;;
23555;SDS011;11956;53.184;8.578;2023-01-13T13:55:06;15.70;;;3.38;;
23555;SDS011;11956;53.184;8.578;2023-01-13T13:58:17;16.65;;;2.92;;
23555;SDS011;11956;53.184;8.578;2023-01-13T14:01:28;17.52;;;2.40;;
23555;SDS011;11956;53.184;8.578;2023-01-13T14:04:36;15.75;;;2.53;;
23555;SDS011;11956;53.184;8.578;2023-01-13T14:07:57;11.02;;;2.30;;
23555;SDS011;11956;53.184;8.578;2023-01-13T14:11:25;16.98;;;2.72;;
23555;SDS011;11956;53.184;8.578;2023-01-13T14:14:28;11.55;;;2.38;;
23555;SDS011;11956;53.184;8.578;2023-01-13T14:17:29;16.48;;;2.80;;
23555;SDS011;11956;53.184;8.578;2023-01-13T14:20:30;13.18;;;1.90;;
23555;SDS011;11956;53.184;8.578;2023-01-13T14:23:33;11.95;;;2.65;;
23555;SDS011;11956;53.184;8.578;2023-01-13T14:26:34;13.40;;;2.30;;
23555;SDS011;11956;53.184;8.578;2023-01-13T14:29:35;13.50;;;2.22;;
23555;SDS011;11956;53.184;8.578;2023-01-13T14:32:37;10.88;;;2.15;;
23555;SDS011;11956;53.184;8.578;2023-01-13T14:36:02;15.95;;;2.53;;
23555;SDS011;11956;53.184;8.578;2023-01-13T14:42:12;16.10;;;2.35;;
23555;SDS011;11956;53.184;8.578;2023-01-13T14:45:20;11.38;;;2.38;;
23555;SDS011;11956;53.184;8.578;2023-01-13T14:48:26;6.65;;;1.60;;
23555;SDS011;11956;53.184;8.578;2023-01-13T14:51:35;8.80;;;1.65;;
23555;SDS011;11956;53.184;8.578;2023-01-13T14:54:40;8.88;;;1.70;;
23555;SDS011;11956;53.184;8.578;2023-01-13T14:58:25;11.68;;;1.95;;
23555;SDS011;11956;53.184;8.578;2023-01-13T15:01:28;11.77;;;2.25;;
23555;SDS011;11956;53.184;8.578;2023-01-13T15:04:35;14.65;;;2.08;;
23555;SDS011;11956;53.184;8.578;2023-01-13T15:07:37;17.15;;;2.45;;
23555;SDS011;11956;53.184;8.578;2023-01-13T15:10:52;10.88;;;1.95;;
23555;SDS011;11956;53.184;8.578;2023-01-13T15:13:59;14.77;;;2.42;;
23555;SDS011;11956;53.184;8.578;2023-01-13T15:17:00;12.85;;;2.33;;
23555;SDS011;11956;53.184;8.578;2023-01-13T15:20:02;11.40;;;2.13;;
23555;SDS011;11956;53.184;8.578;2023-01-13T15:26:23;13.57;;;2.10;;
23555;SDS011;11956;53.184;8.578;2023-01-13T15:29:26;12.57;;;2.30;;
23555;SDS011;11956;53.184;8.578;2023-01-13T15:32:28;10.95;;;2.20;;
23555;SDS011;11956;53.184;8.578;2023-01-13T15:35:29;13.63;;;3.20;;
23555;SDS011;11956;53.184;8.578;2023-01-13T15:38:31;12.23;;;2.50;;
23555;SDS011;11956;53.184;8.578;2023-01-13T15:41:32;14.18;;;2.30;;
23555;SDS011;11956;53.184;8.578;2023-01-13T15:44:51;11.05;;;1.98;;
23555;SDS011;11956;53.184;8.578;2023-01-13T15:48:10;11.32;;;2.33;;
23555;SDS011;11956;53.184;8.578;2023-01-13T15:51:12;11.13;;;2.25;;
23555;SDS011;11956;53.184;8.578;2023-01-13T15:54:13;12.70;;;2.35;;
23555;SDS011;11956;53.184;8.578;2023-01-13T15:57:22;13.63;;;2.25;;
23555;SDS011;11956;53.184;8.578;2023-01-13T16:03:29;13.50;;;1.73;;
23555;SDS011;11956;53.184;8.578;2023-01-13T16:06:30;9.88;;;1.85;;
23555;SDS011;11956;53.184;8.578;2023-01-13T16:09:36;13.85;;;2.30;;
23555;SDS011;11956;53.184;8.578;2023-01-13T16:12:37;12.57;;;2.05;;
23555;SDS011;11956;53.184;8.578;2023-01-13T16:15:56;4.15;;;1.00;;
23555;SDS011;11956;53.184;8.578;2023-01-13T16:18:58;7.55;;;1.15;;
23555;SDS011;11956;53.184;8.578;2023-01-13T16:21:59;3.05;;;0.90;;
23555;SDS011;11956;53.184;8.578;2023-01-13T16:25:00;3.70;;;0.80;;
23555;SDS011;11956;53.184;8.578;2023-01-13T16:28:00;6.15;;;0.90;;
23555;SDS011;11956;53.184;8.578;2023-01-13T16:31:14;5.68;;;0.85;;
23555;SDS011;11956;53.184;8.578;2023-01-13T16:34:18;8.85;;;1.50;;
23555;SDS011;11956;53.184;8.578;2023-01-13T16:37:25;3.50;;;0.80;;
23555;SDS011;11956;53.184;8.578;2023-01-13T16:40:31;3.45;;;0.68;;
23555;SDS011;11956;53.184;8.578;2023-01-13T16:43:34;2.55;;;0.75;;
23555;SDS011;11956;53.184;8.578;2023-01-13T16:46:35;5.32;;;1.45;;
23555;SDS011;11956;53.184;8.578;2023-01-13T16:49:36;6.38;;;0.85;;
23555;SDS011;11956;53.184;8.578;2023-01-13T16:52:37;8.38;;;1.35;;
23555;SDS011;11956;53.184;8.578;2023-01-13T16:55:38;4.47;;;1.02;;
23555;SDS011;11956;53.184;8.578;2023-01-13T16:58:40;9.80;;;2.00;;
23555;SDS011;11956;53.184;8.578;2023-01-13T17:01:42;5.85;;;1.10;;
23555;SDS011;11956;53.184;8.578;2023-01-13T17:04:43;5.38;;;1.27;;
23555;SDS011;11956;53.184;8.578;2023-01-13T17:07:45;4.80;;;0.85;;
23555;SDS011;11956;53.184;8.578;2023-01-13T17:10:47;4.72;;;1.60;;
23555;SDS011;11956;53.184;8.578;2023-01-13T17:13:50;9.38;;;1.92;;
23555;SDS011;11956;53.184;8.578;2023-01-13T17:16:51;12.15;;;2.00;;
23555;SDS011;11956;53.184;8.578;2023-01-13T17:19:54;12.05;;;2.47;;
23555;SDS011;11956;53.184;8.578;2023-01-13T17:22:56;12.80;;;2.85;;
23555;SDS011;11956;53.184;8.578;2023-01-13T17:25:56;13.02;;;3.15;;
23555;SDS011;11956;53.184;8.578;2023-01-13T17:29:02;13.60;;;2.85;;
23555;SDS011;11956;53.184;8.578;2023-01-13T17:32:19;12.73;;;2.78;;
23555;SDS011;11956;53.184;8.578;2023-01-13T17:35:22;11.82;;;2.40;;
23555;SDS011;11956;53.184;8.578;2023-01-13T17:38:23;11.82;;;2.53;;
23555;SDS011;11956;53.184;8.578;2023-01-13T17:41:24;9.65;;;1.75;;
23555;SDS011;11956;53.184;8.578;2023-01-13T17:44:25;9.50;;;3.90;;
23555;SDS011;11956;53.184;8.578;2023-01-13T17:47:26;6.90;;;1.52;;
23555;SDS011;11956;53.184;8.578;2023-01-13T17:50:27;8.25;;;1.63;;
23555;SDS011;11956;53.184;8.578;2023-01-13T17:53:30;4.63;;;1.25;;
23555;SDS011;11956;53.184;8.578;2023-01-13T17:56:31;3.40;;;1.08;;
23555;SDS011;11956;53.184;8.578;2023-01-13T17:59:31;7.45;;;1.10;;
23555;SDS011;11956;53.184;8.578;2023-01-13T18:02:32;3.08;;;0.90;;
23555;SDS011;11956;53.184;8.578;2023-01-13T18:05:34;7.25;;;1.23;;
23555;SDS011;11956;53.184;8.578;2023-01-13T18:08:37;4.50;;;1.20;;
23555;SDS011;11956;53.184;8.578;2023-01-13T18:11:38;8.65;;;1.90;;
23555;SDS011;11956;53.184;8.578;2023-01-13T18:14:39;7.50;;;1.92;;
23555;SDS011;11956;53.184;8.578;2023-01-13T18:17:41;8.10;;;1.85;;
23555;SDS011;11956;53.184;8.578;2023-01-13T18:20:43;11.35;;;2.10;;
23555;SDS011;11956;53.184;8.578;2023-01-13T18:24:03;9.43;;;1.48;;
23555;SDS011;11956;53.184;8.578;2023-01-13T18:27:28;10.95;;;1.73;;
23555;SDS011;11956;53.184;8.578;2023-01-13T18:30:33;7.95;;;2.00;;
23555;SDS011;11956;53.184;8.578;2023-01-13T18:33:34;7.15;;;1.92;;
23555;SDS011;11956;53.184;8.578;2023-01-13T18:36:35;11.93;;;2.22;;
23555;SDS011;11956;53.184;8.578;2023-01-13T18:39:37;10.02;;;1.83;;
23555;SDS011;11956;53.184;8.578;2023-01-13T18:42:38;7.38;;;1.65;;
23555;SDS011;11956;53.184;8.578;2023-01-13T18:45:53;12.98;;;2.03;;
23555;SDS011;11956;53.184;8.578;2023-01-13T18:48:54;15.88;;;6.50;;
23555;SDS011;11956;53.184;8.578;2023-01-13T18:51:55;9.07;;;2.00;;
23555;SDS011;11956;53.184;8.578;2023-01-13T18:54:55;12.68;;;2.30;;
23555;SDS011;11956;53.184;8.578;2023-01-13T18:57:56;14.80;;;1.88;;
23555;SDS011;11956;53.184;8.578;2023-01-13T19:01:01;12.75;;;1.90;;
23555;SDS011;11956;53.184;8.578;2023-01-13T19:04:04;9.18;;;1.77;;
23555;SDS011;11956;53.184;8.578;2023-01-13T19:07:14;12.63;;;2.10;;
23555;SDS011;11956;53.184;8.578;2023-01-13T19:10:21;9.77;;;1.73;;
23555;SDS011;11956;53.184;8.578;2023-01-13T19:13:22;9.77;;;2.40;;
23555;SDS011;11956;53.184;8.578;2023-01-13T19:16:23;12.70;;;4.40;;
23555;SDS011;11956;53.184;8.578;2023-01-13T19:19:24;13.55;;;2.00;;
23555;SDS011;11956;53.184;8.578;2023-01-13T19:22:27;11.15;;;2.33;;
23555;SDS011;11956;53.184;8.578;2023-01-13T19:25:31;11.40;;;2.33;;
23555;SDS011;11956;53.184;8.578;2023-01-13T19:28:32;15.63;;;2.60;;
23555;SDS011;11956;53.184;8.578;2023-01-13T19:31:34;13.05;;;2.30;;
23555;SDS011;11956;53.184;8.578;2023-01-13T19:34:35;16.05;;;2.67;;
23555;SDS011;11956;53.184;8.578;2023-01-13T19:37:36;13.32;;;2.58;;
23555;SDS011;11956;53.184;8.578;2023-01-13T19:40:37;11.85;;;2.67;;
23555;SDS011;11956;53.184;8.578;2023-01-13T19:43:38;15.10;;;3.03;;
23555;SDS011;11956;53.184;8.578;2023-01-13T19:46:57;16.15;;;2.60;;
23555;SDS011;11956;53.184;8.578;2023-01-13T19:49:58;11.20;;;2.30;;
23555;SDS011;11956;53.184;8.578;2023-01-13T19:53:02;11.20;;;1.77;;
23555;SDS011;11956;53.184;8.578;2023-01-13T19:56:04;8.75;;;1.67;;
23555;SDS011;11956;53.184;8.578;2023-01-13T19:59:05;8.00;;;1.55;;
23555;SDS011;11956;53.184;8.578;2023-01-13T20:02:11;11.95;;;3.58;;
23555;SDS011;11956;53.184;8.578;2023-01-13T20:05:27;7.80;;;1.60;;
23555;SDS011;11956;53.184;8.578;2023-01-13T20:08:28;7.72;;;1.77;;
23555;SDS011;11956;53.184;8.578;2023-01-13T20:11:30;8.20;;;1.75;;
23555;SDS011;11956;53.184;8.578;2023-01-13T20:14:32;11.13;;;1.85;;
23555;SDS011;11956;53.184;8.578;2023-01-13T20:17:33;8.10;;;1.10;;
23555;SDS011;11956;53.184;8.578;2023-01-13T20:20:34;6.50;;;0.98;;
23555;SDS011;11956;53.184;8.578;2023-01-13T20:23:36;6.07;;;1.10;;
23555;SDS011;11956;53.184;8.578;2023-01-13T20:26:37;9.55;;;1.23;;
23555;SDS011;11956;53.184;8.578;2023-01-13T20:29:39;5.57;;;0.90;;
23555;SDS011;11956;53.184;8.578;2023-01-13T20:32:40;5.47;;;0.57;;
23555;SDS011;11956;53.184;8.578;2023-01-13T20:35:42;2.92;;;0.52;;
23555;SDS011;11956;53.184;8.578;2023-01-13T20:38:44;2.92;;;0.63;;